sensor_id;sensor_type;location;lat;lon;timestamp;temperature;humidity
39983;DHT22;25670;44.782;10.356;2022-07-03T00:01:21;24.70;99.90
39983;DHT22;25670;44.782;10.356;2022-07-03T00:18:27;24.50;99.90
39983;DHT22;25670;44.782;10.356;2022-07-03T00:21:16;24.20;99.90
39983;DHT22;25670;44.782;10.356;2022-07-03T00:24:04;24.50;99.90
39983;DHT22;25670;44.782;10.356;2022-07-03T00:26:36;24.20;99.90
39983;DHT22;25670;44.782;10.356;2022-07-03T00:29:03;24.20;99.90
39983;DHT22;25670;44.782;10.356;2022-07-03T00:31:32;24.20;99.90
39983;DHT22;25670;44.782;10.356;2022-07-03T00:33:59;24.20;99.90
39983;DHT22;25670;44.782;10.356;2022-07-03T00:36:29;24.10;99.90
39983;DHT22;25670;44.782;10.356;2022-07-03T00:41:28;24.10;99.90
39983;DHT22;25670;44.782;10.356;2022-07-03T00:43:55;24.30;99.90
39983;DHT22;25670;44.782;10.356;2022-07-03T01:19:06;23.80;99.90
39983;DHT22;25670;44.782;10.356;2022-07-03T01:21:40;23.80;99.90
39983;DHT22;25670;44.782;10.356;2022-07-03T01:27:07;23.10;99.90
39983;DHT22;25670;44.782;10.356;2022-07-03T01:29:56;23.80;99.90
39983;DHT22;25670;44.782;10.356;2022-07-03T01:32:38;23.80;99.90
39983;DHT22;25670;44.782;10.356;2022-07-03T01:35:07;23.90;99.90
39983;DHT22;25670;44.782;10.356;2022-07-03T01:37:35;23.80;99.90
39983;DHT22;25670;44.782;10.356;2022-07-03T01:40:05;23.60;99.90
39983;DHT22;25670;44.782;10.356;2022-07-03T01:42:35;23.70;99.90
39983;DHT22;25670;44.782;10.356;2022-07-03T01:45:05;23.70;99.90
39983;DHT22;25670;44.782;10.356;2022-07-03T01:47:34;23.60;99.90
39983;DHT22;25670;44.782;10.356;2022-07-03T01:50:02;23.60;99.90
39983;DHT22;25670;44.782;10.356;2022-07-03T01:52:31;22.90;99.90
39983;DHT22;25670;44.782;10.356;2022-07-03T01:55:18;23.50;99.90
39983;DHT22;25670;44.782;10.356;2022-07-03T01:57:49;23.60;99.90
39983;DHT22;25670;44.782;10.356;2022-07-03T02:00:20;23.40;99.90
39983;DHT22;25670;44.782;10.356;2022-07-03T02:03:04;23.50;99.90
39983;DHT22;25670;44.782;10.356;2022-07-03T02:05:46;23.50;99.90
39983;DHT22;25670;44.782;10.356;2022-07-03T02:11:16;23.20;99.90
39983;DHT22;25670;44.782;10.356;2022-07-03T02:14:16;23.60;99.90
39983;DHT22;25670;44.782;10.356;2022-07-03T04:22:57;23.30;99.90
39983;DHT22;25670;44.782;10.356;2022-07-03T04:25:23;22.60;99.90
39983;DHT22;25670;44.782;10.356;2022-07-03T04:37:36;23.00;99.90
39983;DHT22;25670;44.782;10.356;2022-07-03T04:40:03;23.50;99.90
39983;DHT22;25670;44.782;10.356;2022-07-03T04:52:15;23.80;99.90
39983;DHT22;25670;44.782;10.356;2022-07-03T04:54:43;23.60;99.90
39983;DHT22;25670;44.782;10.356;2022-07-03T04:57:10;24.00;99.90
39983;DHT22;25670;44.782;10.356;2022-07-03T05:02:03;24.80;99.90
39983;DHT22;25670;44.782;10.356;2022-07-03T05:11:49;23.80;99.90
39983;DHT22;25670;44.782;10.356;2022-07-03T05:14:15;24.20;99.90
39983;DHT22;25670;44.782;10.356;2022-07-03T05:16:41;24.00;99.90
39983;DHT22;25670;44.782;10.356;2022-07-03T05:19:08;24.30;99.90
39983;DHT22;25670;44.782;10.356;2022-07-03T05:31:20;24.40;99.90
39983;DHT22;25670;44.782;10.356;2022-07-03T05:36:13;25.10;99.90
39983;DHT22;25670;44.782;10.356;2022-07-03T05:41:25;25.20;99.90
39983;DHT22;25670;44.782;10.356;2022-07-03T05:46:17;25.60;99.90
39983;DHT22;25670;44.782;10.356;2022-07-03T05:48:44;25.70;99.90
39983;DHT22;25670;44.782;10.356;2022-07-03T05:53:36;25.80;99.90
39983;DHT22;25670;44.782;10.356;2022-07-03T05:56:03;25.40;99.90
39983;DHT22;25670;44.782;10.356;2022-07-03T06:05:49;25.50;99.90
39983;DHT22;25670;44.782;10.356;2022-07-03T06:08:15;25.70;99.90
39983;DHT22;25670;44.782;10.356;2022-07-03T06:13:08;26.30;99.90
39983;DHT22;25670;44.782;10.356;2022-07-03T06:15:34;26.50;99.90
39983;DHT22;25670;44.782;10.356;2022-07-03T06:18:03;26.50;99.90
39983;DHT22;25670;44.782;10.356;2022-07-03T06:20:30;26.60;99.90
39983;DHT22;25670;44.782;10.356;2022-07-03T06:22:56;26.50;99.90
39983;DHT22;25670;44.782;10.356;2022-07-03T06:25:22;26.30;99.90
39983;DHT22;25670;44.782;10.356;2022-07-03T06:30:15;26.40;99.90
39983;DHT22;25670;44.782;10.356;2022-07-03T06:32:43;26.50;99.90
39983;DHT22;25670;44.782;10.356;2022-07-03T06:35:09;27.20;99.90
39983;DHT22;25670;44.782;10.356;2022-07-03T06:37:38;26.10;99.90
39983;DHT22;25670;44.782;10.356;2022-07-03T06:43:23;27.20;99.90
39983;DHT22;25670;44.782;10.356;2022-07-03T06:45:50;27.10;99.90
39983;DHT22;25670;44.782;10.356;2022-07-03T06:48:16;27.10;99.90
39983;DHT22;25670;44.782;10.356;2022-07-03T06:50:42;26.90;99.90
39983;DHT22;25670;44.782;10.356;2022-07-03T06:53:09;27.60;99.90
39983;DHT22;25670;44.782;10.356;2022-07-03T06:55:35;27.30;99.90
39983;DHT22;25670;44.782;10.356;2022-07-03T07:02:54;27.20;99.90
39983;DHT22;25670;44.782;10.356;2022-07-03T07:07:51;27.30;99.90
39983;DHT22;25670;44.782;10.356;2022-07-03T07:10:17;27.60;99.90
39983;DHT22;25670;44.782;10.356;2022-07-03T07:12:43;27.20;99.90
39983;DHT22;25670;44.782;10.356;2022-07-03T07:20:03;27.30;99.90
39983;DHT22;25670;44.782;10.356;2022-07-03T07:24:56;28.00;99.90
39983;DHT22;25670;44.782;10.356;2022-07-03T07:27:22;28.00;99.90
39983;DHT22;25670;44.782;10.356;2022-07-03T07:32:15;27.60;99.90
39983;DHT22;25670;44.782;10.356;2022-07-03T07:34:41;28.20;99.90
39983;DHT22;25670;44.782;10.356;2022-07-03T07:37:08;27.80;99.90
39983;DHT22;25670;44.782;10.356;2022-07-03T07:39:34;28.60;99.90
39983;DHT22;25670;44.782;10.356;2022-07-03T07:42:00;28.20;99.90
39983;DHT22;25670;44.782;10.356;2022-07-03T07:44:26;28.40;99.90
39983;DHT22;25670;44.782;10.356;2022-07-03T07:46:52;28.90;99.90
39983;DHT22;25670;44.782;10.356;2022-07-03T07:49:19;29.00;99.90
39983;DHT22;25670;44.782;10.356;2022-07-03T07:51:45;29.00;99.90
39983;DHT22;25670;44.782;10.356;2022-07-03T07:54:11;28.70;99.90
39983;DHT22;25670;44.782;10.356;2022-07-03T07:56:37;28.90;99.90
39983;DHT22;25670;44.782;10.356;2022-07-03T08:01:30;28.80;99.90
39983;DHT22;25670;44.782;10.356;2022-07-03T08:09:27;29.10;99.90
39983;DHT22;25670;44.782;10.356;2022-07-03T08:11:53;29.40;99.90
39983;DHT22;25670;44.782;10.356;2022-07-03T08:14:19;29.50;99.90
39983;DHT22;25670;44.782;10.356;2022-07-03T08:16:45;28.40;99.90
39983;DHT22;25670;44.782;10.356;2022-07-03T08:21:39;29.20;99.90
39983;DHT22;25670;44.782;10.356;2022-07-03T08:24:06;29.60;99.90
39983;DHT22;25670;44.782;10.356;2022-07-03T08:26:32;29.70;99.90
39983;DHT22;25670;44.782;10.356;2022-07-03T08:31:25;29.80;99.90
39983;DHT22;25670;44.782;10.356;2022-07-03T08:33:52;29.40;99.90
39983;DHT22;25670;44.782;10.356;2022-07-03T08:36:18;29.60;99.90
39983;DHT22;25670;44.782;10.356;2022-07-03T08:38:44;29.70;99.90
39983;DHT22;25670;44.782;10.356;2022-07-03T08:41:12;29.80;99.90
39983;DHT22;25670;44.782;10.356;2022-07-03T08:43:39;29.70;99.90
39983;DHT22;25670;44.782;10.356;2022-07-03T08:46:10;30.00;99.90
39983;DHT22;25670;44.782;10.356;2022-07-03T08:48:37;30.20;99.90
39983;DHT22;25670;44.782;10.356;2022-07-03T08:51:03;30.10;99.90
39983;DHT22;25670;44.782;10.356;2022-07-03T08:53:33;32.80;99.90
39983;DHT22;25670;44.782;10.356;2022-07-03T08:56:00;30.40;99.90
39983;DHT22;25670;44.782;10.356;2022-07-03T08:58:30;30.40;99.90
39983;DHT22;25670;44.782;10.356;2022-07-03T09:05:52;31.00;99.90
39983;DHT22;25670;44.782;10.356;2022-07-03T09:08:18;30.50;99.90
39983;DHT22;25670;44.782;10.356;2022-07-03T09:13:16;30.70;99.90
39983;DHT22;25670;44.782;10.356;2022-07-03T09:15:42;30.50;99.90
39983;DHT22;25670;44.782;10.356;2022-07-03T09:18:10;31.00;99.90
39983;DHT22;25670;44.782;10.356;2022-07-03T09:20:39;31.10;99.90
39983;DHT22;25670;44.782;10.356;2022-07-03T09:23:18;31.50;99.90
39983;DHT22;25670;44.782;10.356;2022-07-03T09:25:55;31.50;99.90
39983;DHT22;25670;44.782;10.356;2022-07-03T09:28:23;31.50;99.90
39983;DHT22;25670;44.782;10.356;2022-07-03T09:30:59;32.00;99.90
39983;DHT22;25670;44.782;10.356;2022-07-03T09:33:26;31.50;99.90
39983;DHT22;25670;44.782;10.356;2022-07-03T09:35:54;31.50;99.90
39983;DHT22;25670;44.782;10.356;2022-07-03T09:38:21;31.80;99.90
39983;DHT22;25670;44.782;10.356;2022-07-03T09:40:51;31.60;99.90
39983;DHT22;25670;44.782;10.356;2022-07-03T09:43:28;31.50;99.90
39983;DHT22;25670;44.782;10.356;2022-07-03T09:46:00;31.90;99.90
39983;DHT22;25670;44.782;10.356;2022-07-03T09:48:31;31.60;99.90
39983;DHT22;25670;44.782;10.356;2022-07-03T09:51:19;32.60;99.90
39983;DHT22;25670;44.782;10.356;2022-07-03T09:53:48;32.70;99.90
39983;DHT22;25670;44.782;10.356;2022-07-03T09:56:15;32.70;99.90
39983;DHT22;25670;44.782;10.356;2022-07-03T10:01:25;32.20;99.90
39983;DHT22;25670;44.782;10.356;2022-07-03T10:03:51;32.50;99.90
39983;DHT22;25670;44.782;10.356;2022-07-03T10:06:17;33.00;99.90
39983;DHT22;25670;44.782;10.356;2022-07-03T10:08:43;32.50;99.90
39983;DHT22;25670;44.782;10.356;2022-07-03T10:11:10;32.70;99.90
39983;DHT22;25670;44.782;10.356;2022-07-03T10:13:38;32.70;99.60
39983;DHT22;25670;44.782;10.356;2022-07-03T10:16:06;32.60;99.90
39983;DHT22;25670;44.782;10.356;2022-07-03T10:18:36;33.00;99.90
39983;DHT22;25670;44.782;10.356;2022-07-03T10:21:06;33.20;99.90
39983;DHT22;25670;44.782;10.356;2022-07-03T10:23:33;33.10;99.90
39983;DHT22;25670;44.782;10.356;2022-07-03T10:26:00;33.40;99.90
39983;DHT22;25670;44.782;10.356;2022-07-03T10:28:27;33.80;99.70
39983;DHT22;25670;44.782;10.356;2022-07-03T10:30:56;33.70;97.60
39983;DHT22;25670;44.782;10.356;2022-07-03T10:33:24;33.50;99.50
39983;DHT22;25670;44.782;10.356;2022-07-03T10:35:51;33.90;99.40
39983;DHT22;25670;44.782;10.356;2022-07-03T10:38:37;34.10;99.20
39983;DHT22;25670;44.782;10.356;2022-07-03T10:41:12;33.90;98.60
39983;DHT22;25670;44.782;10.356;2022-07-03T10:43:59;34.00;98.10
39983;DHT22;25670;44.782;10.356;2022-07-03T10:46:43;34.00;97.30
39983;DHT22;25670;44.782;10.356;2022-07-03T10:49:34;33.80;96.80
39983;DHT22;25670;44.782;10.356;2022-07-03T11:49:54;36.20;94.40
39983;DHT22;25670;44.782;10.356;2022-07-03T11:52:33;35.80;93.80
39983;DHT22;25670;44.782;10.356;2022-07-03T11:55:00;36.80;94.00
39983;DHT22;25670;44.782;10.356;2022-07-03T11:59:56;36.50;93.90
39983;DHT22;25670;44.782;10.356;2022-07-03T12:02:50;37.10;93.60
39983;DHT22;25670;44.782;10.356;2022-07-03T12:05:16;36.40;92.90
39983;DHT22;25670;44.782;10.356;2022-07-03T12:07:43;36.60;93.40
39983;DHT22;25670;44.782;10.356;2022-07-03T12:10:09;36.90;93.60
39983;DHT22;25670;44.782;10.356;2022-07-03T12:12:37;37.30;93.50
39983;DHT22;25670;44.782;10.356;2022-07-03T12:15:03;38.00;93.10
39983;DHT22;25670;44.782;10.356;2022-07-03T12:17:30;37.40;92.10
39983;DHT22;25670;44.782;10.356;2022-07-03T12:20:00;36.90;92.50
39983;DHT22;25670;44.782;10.356;2022-07-03T12:22:35;37.60;91.40
39983;DHT22;25670;44.782;10.356;2022-07-03T12:25:10;37.70;91.60
39983;DHT22;25670;44.782;10.356;2022-07-03T12:27:42;37.40;91.20
39983;DHT22;25670;44.782;10.356;2022-07-03T12:30:12;37.50;91.20
39983;DHT22;25670;44.782;10.356;2022-07-03T12:32:39;37.50;91.00
39983;DHT22;25670;44.782;10.356;2022-07-03T12:35:06;37.70;91.30
39983;DHT22;25670;44.782;10.356;2022-07-03T12:37:40;37.60;89.30
39983;DHT22;25670;44.782;10.356;2022-07-03T12:40:09;37.90;89.70
39983;DHT22;25670;44.782;10.356;2022-07-03T12:42:49;37.20;91.10
39983;DHT22;25670;44.782;10.356;2022-07-03T12:45:27;37.70;90.90
39983;DHT22;25670;44.782;10.356;2022-07-03T12:52:02;38.10;90.30
39983;DHT22;25670;44.782;10.356;2022-07-03T12:58:15;38.90;90.20
39983;DHT22;25670;44.782;10.356;2022-07-03T13:01:02;38.50;90.10
39983;DHT22;25670;44.782;10.356;2022-07-03T13:03:38;38.50;87.60
39983;DHT22;25670;44.782;10.356;2022-07-03T13:06:14;38.60;90.10
39983;DHT22;25670;44.782;10.356;2022-07-03T13:08:58;38.40;89.10
39983;DHT22;25670;44.782;10.356;2022-07-03T13:14:54;38.70;86.90
39983;DHT22;25670;44.782;10.356;2022-07-03T13:17:20;39.30;90.40
39983;DHT22;25670;44.782;10.356;2022-07-03T13:19:46;39.00;85.70
39983;DHT22;25670;44.782;10.356;2022-07-03T13:22:13;39.10;85.30
39983;DHT22;25670;44.782;10.356;2022-07-03T13:27:05;39.10;85.90
39983;DHT22;25670;44.782;10.356;2022-07-03T13:29:40;39.50;85.30
39983;DHT22;25670;44.782;10.356;2022-07-03T13:39:45;39.00;84.60
39983;DHT22;25670;44.782;10.356;2022-07-03T13:42:11;39.30;84.30
39983;DHT22;25670;44.782;10.356;2022-07-03T13:44:37;39.50;84.50
39983;DHT22;25670;44.782;10.356;2022-07-03T13:47:04;41.90;83.50
39983;DHT22;25670;44.782;10.356;2022-07-03T13:49:34;39.10;80.80
39983;DHT22;25670;44.782;10.356;2022-07-03T13:52:00;38.60;80.50
39983;DHT22;25670;44.782;10.356;2022-07-03T13:54:27;38.50;82.70
39983;DHT22;25670;44.782;10.356;2022-07-03T13:56:53;38.90;83.50
39983;DHT22;25670;44.782;10.356;2022-07-03T13:59:20;39.90;83.50
39983;DHT22;25670;44.782;10.356;2022-07-03T14:01:48;39.20;81.00
39983;DHT22;25670;44.782;10.356;2022-07-03T14:04:14;38.90;80.80
39983;DHT22;25670;44.782;10.356;2022-07-03T14:09:07;39.30;81.50
39983;DHT22;25670;44.782;10.356;2022-07-03T14:11:33;39.30;80.80
39983;DHT22;25670;44.782;10.356;2022-07-03T14:14:00;39.40;79.70
39983;DHT22;25670;44.782;10.356;2022-07-03T14:16:26;39.70;79.20
39983;DHT22;25670;44.782;10.356;2022-07-03T14:18:53;39.80;77.60
39983;DHT22;25670;44.782;10.356;2022-07-03T14:23:45;39.10;76.40
39983;DHT22;25670;44.782;10.356;2022-07-03T14:26:11;39.60;76.50
39983;DHT22;25670;44.782;10.356;2022-07-03T14:28:38;39.70;75.60
39983;DHT22;25670;44.782;10.356;2022-07-03T14:31:22;40.50;76.40
39983;DHT22;25670;44.782;10.356;2022-07-03T14:33:52;40.50;76.20
39983;DHT22;25670;44.782;10.356;2022-07-03T14:36:21;40.70;77.80
39983;DHT22;25670;44.782;10.356;2022-07-03T14:38:47;40.70;74.20
39983;DHT22;25670;44.782;10.356;2022-07-03T14:41:13;40.40;73.90
39983;DHT22;25670;44.782;10.356;2022-07-03T14:43:40;40.90;74.90
39983;DHT22;25670;44.782;10.356;2022-07-03T14:46:06;40.70;73.90
39983;DHT22;25670;44.782;10.356;2022-07-03T14:48:32;40.90;72.40
39983;DHT22;25670;44.782;10.356;2022-07-03T14:50:58;41.30;72.50
39983;DHT22;25670;44.782;10.356;2022-07-03T14:53:25;41.30;70.70
39983;DHT22;25670;44.782;10.356;2022-07-03T14:55:51;41.10;70.60
39983;DHT22;25670;44.782;10.356;2022-07-03T14:58:20;41.10;71.00
39983;DHT22;25670;44.782;10.356;2022-07-03T15:00:50;41.30;74.20
39983;DHT22;25670;44.782;10.356;2022-07-03T15:03:28;42.00;72.30
39983;DHT22;25670;44.782;10.356;2022-07-03T15:05:56;41.50;71.50
39983;DHT22;25670;44.782;10.356;2022-07-03T15:11:06;42.00;73.60
39983;DHT22;25670;44.782;10.356;2022-07-03T15:16:04;42.10;71.10
39983;DHT22;25670;44.782;10.356;2022-07-03T15:18:31;42.00;72.30
39983;DHT22;25670;44.782;10.356;2022-07-03T15:20:58;43.40;70.70
39983;DHT22;25670;44.782;10.356;2022-07-03T15:23:27;42.40;69.00
39983;DHT22;25670;44.782;10.356;2022-07-03T15:25:54;42.20;69.30
39983;DHT22;25670;44.782;10.356;2022-07-03T15:28:21;42.30;69.90
39983;DHT22;25670;44.782;10.356;2022-07-03T15:30:52;42.40;68.20
39983;DHT22;25670;44.782;10.356;2022-07-03T15:33:20;42.50;68.30
39983;DHT22;25670;44.782;10.356;2022-07-03T15:35:51;42.50;69.40
39983;DHT22;25670;44.782;10.356;2022-07-03T15:38:25;42.40;69.00
39983;DHT22;25670;44.782;10.356;2022-07-03T15:40:55;42.40;71.70
39983;DHT22;25670;44.782;10.356;2022-07-03T15:46:54;42.40;68.70
39983;DHT22;25670;44.782;10.356;2022-07-03T15:49:33;42.70;68.40
39983;DHT22;25670;44.782;10.356;2022-07-03T15:52:20;43.80;70.60
39983;DHT22;25670;44.782;10.356;2022-07-03T15:57:34;43.70;67.20
39983;DHT22;25670;44.782;10.356;2022-07-03T16:00:08;43.40;67.40
39983;DHT22;25670;44.782;10.356;2022-07-03T16:05:17;43.80;69.60
39983;DHT22;25670;44.782;10.356;2022-07-03T16:07:45;43.60;66.60
39983;DHT22;25670;44.782;10.356;2022-07-03T16:10:13;43.40;67.90
39983;DHT22;25670;44.782;10.356;2022-07-03T16:12:40;43.90;68.10
39983;DHT22;25670;44.782;10.356;2022-07-03T16:15:08;44.20;67.50
39983;DHT22;25670;44.782;10.356;2022-07-03T16:17:35;43.90;67.00
39983;DHT22;25670;44.782;10.356;2022-07-03T16:20:04;44.60;66.20
39983;DHT22;25670;44.782;10.356;2022-07-03T16:22:34;44.20;66.70
39983;DHT22;25670;44.782;10.356;2022-07-03T16:25:02;44.40;65.80
39983;DHT22;25670;44.782;10.356;2022-07-03T16:27:30;44.60;65.40
39983;DHT22;25670;44.782;10.356;2022-07-03T16:29:57;44.60;66.10
39983;DHT22;25670;44.782;10.356;2022-07-03T16:32:33;44.70;64.40
39983;DHT22;25670;44.782;10.356;2022-07-03T16:35:27;45.00;65.30
39983;DHT22;25670;44.782;10.356;2022-07-03T16:38:01;46.20;63.60
39983;DHT22;25670;44.782;10.356;2022-07-03T16:40:29;46.60;64.30
39983;DHT22;25670;44.782;10.356;2022-07-03T16:42:58;46.50;65.60
39983;DHT22;25670;44.782;10.356;2022-07-03T16:45:30;46.50;63.20
39983;DHT22;25670;44.782;10.356;2022-07-03T16:48:08;46.10;63.20
39983;DHT22;25670;44.782;10.356;2022-07-03T16:50:47;45.30;64.00
39983;DHT22;25670;44.782;10.356;2022-07-03T16:53:26;45.30;64.70
39983;DHT22;25670;44.782;10.356;2022-07-03T16:58:22;45.20;63.10
39983;DHT22;25670;44.782;10.356;2022-07-03T17:00:48;45.20;64.30
39983;DHT22;25670;44.782;10.356;2022-07-03T17:03:18;44.80;62.70
39983;DHT22;25670;44.782;10.356;2022-07-03T17:05:48;44.50;62.90
39983;DHT22;25670;44.782;10.356;2022-07-03T17:08:20;44.90;62.60
39983;DHT22;25670;44.782;10.356;2022-07-03T17:10:47;44.90;62.60
39983;DHT22;25670;44.782;10.356;2022-07-03T17:13:14;45.20;61.90
39983;DHT22;25670;44.782;10.356;2022-07-03T17:15:43;45.70;62.20
39983;DHT22;25670;44.782;10.356;2022-07-03T17:18:10;46.50;61.90
39983;DHT22;25670;44.782;10.356;2022-07-03T17:20:40;46.00;61.90
39983;DHT22;25670;44.782;10.356;2022-07-03T17:33:04;45.40;61.00
39983;DHT22;25670;44.782;10.356;2022-07-03T17:35:37;45.10;61.30
39983;DHT22;25670;44.782;10.356;2022-07-03T17:38:09;45.00;61.70
39983;DHT22;25670;44.782;10.356;2022-07-03T17:40:38;45.00;61.60
39983;DHT22;25670;44.782;10.356;2022-07-03T17:43:04;44.00;61.20
39983;DHT22;25670;44.782;10.356;2022-07-03T17:45:31;44.10;61.40
39983;DHT22;25670;44.782;10.356;2022-07-03T17:47:59;43.90;61.10
39983;DHT22;25670;44.782;10.356;2022-07-03T17:50:26;43.90;61.70
39983;DHT22;25670;44.782;10.356;2022-07-03T17:52:53;43.60;61.00
39983;DHT22;25670;44.782;10.356;2022-07-03T17:55:22;43.90;61.50
39983;DHT22;25670;44.782;10.356;2022-07-03T17:57:49;44.10;61.60
39983;DHT22;25670;44.782;10.356;2022-07-03T18:00:18;43.80;61.20
39983;DHT22;25670;44.782;10.356;2022-07-03T18:02:51;43.40;61.30
39983;DHT22;25670;44.782;10.356;2022-07-03T18:05:19;43.20;61.20
39983;DHT22;25670;44.782;10.356;2022-07-03T18:08:06;43.20;62.10
39983;DHT22;25670;44.782;10.356;2022-07-03T18:10:46;42.80;63.40
39983;DHT22;25670;44.782;10.356;2022-07-03T18:13:36;42.10;66.20
39983;DHT22;25670;44.782;10.356;2022-07-03T18:16:10;41.90;67.80
39983;DHT22;25670;44.782;10.356;2022-07-03T18:18:41;41.60;68.80
39983;DHT22;25670;44.782;10.356;2022-07-03T18:21:11;41.30;69.80
39983;DHT22;25670;44.782;10.356;2022-07-03T18:26:09;40.00;74.80
39983;DHT22;25670;44.782;10.356;2022-07-03T18:28:37;38.90;75.90
39983;DHT22;25670;44.782;10.356;2022-07-03T18:31:04;38.10;75.70
39983;DHT22;25670;44.782;10.356;2022-07-03T18:33:32;37.40;78.00
39983;DHT22;25670;44.782;10.356;2022-07-03T18:35:59;36.30;78.80
39983;DHT22;25670;44.782;10.356;2022-07-03T18:38:26;36.10;80.60
39983;DHT22;25670;44.782;10.356;2022-07-03T18:40:54;35.30;79.80
39983;DHT22;25670;44.782;10.356;2022-07-03T18:43:21;34.60;82.20
39983;DHT22;25670;44.782;10.356;2022-07-03T18:45:47;34.60;83.10
39983;DHT22;25670;44.782;10.356;2022-07-03T18:48:14;34.30;84.00
39983;DHT22;25670;44.782;10.356;2022-07-03T18:50:45;34.10;82.90
39983;DHT22;25670;44.782;10.356;2022-07-03T18:53:33;33.70;85.60
39983;DHT22;25670;44.782;10.356;2022-07-03T18:56:13;33.50;84.70
39983;DHT22;25670;44.782;10.356;2022-07-03T18:59:13;33.10;85.20
39983;DHT22;25670;44.782;10.356;2022-07-03T19:01:44;32.80;85.40
39983;DHT22;25670;44.782;10.356;2022-07-03T19:07:04;32.40;87.00
39983;DHT22;25670;44.782;10.356;2022-07-03T19:09:52;32.20;89.50
39983;DHT22;25670;44.782;10.356;2022-07-03T19:12:27;32.10;89.60
39983;DHT22;25670;44.782;10.356;2022-07-03T19:14:59;32.00;90.20
39983;DHT22;25670;44.782;10.356;2022-07-03T19:17:29;31.60;89.30
39983;DHT22;25670;44.782;10.356;2022-07-03T19:20:00;31.40;89.30
39983;DHT22;25670;44.782;10.356;2022-07-03T19:24:54;31.00;91.40
39983;DHT22;25670;44.782;10.356;2022-07-03T19:27:20;30.80;91.80
39983;DHT22;25670;44.782;10.356;2022-07-03T19:32:13;30.70;92.30
39983;DHT22;25670;44.782;10.356;2022-07-03T19:34:39;30.90;92.30
39983;DHT22;25670;44.782;10.356;2022-07-03T19:37:09;30.60;91.40
39983;DHT22;25670;44.782;10.356;2022-07-03T19:42:02;30.00;91.90
39983;DHT22;25670;44.782;10.356;2022-07-03T19:44:29;29.80;92.90
39983;DHT22;25670;44.782;10.356;2022-07-03T19:46:55;29.80;93.20
39983;DHT22;25670;44.782;10.356;2022-07-03T19:51:51;29.80;94.40
39983;DHT22;25670;44.782;10.356;2022-07-03T19:54:20;30.10;92.90
39983;DHT22;25670;44.782;10.356;2022-07-03T19:59:13;29.90;94.40
39983;DHT22;25670;44.782;10.356;2022-07-03T20:06:32;30.10;94.50
39983;DHT22;25670;44.782;10.356;2022-07-03T20:09:01;30.20;95.50
39983;DHT22;25670;44.782;10.356;2022-07-03T20:11:28;30.40;95.80
39983;DHT22;25670;44.782;10.356;2022-07-03T20:16:21;29.50;96.00
39983;DHT22;25670;44.782;10.356;2022-07-03T20:21:14;29.60;95.50
39983;DHT22;25670;44.782;10.356;2022-07-03T20:23:40;29.70;96.40
39983;DHT22;25670;44.782;10.356;2022-07-03T20:28:52;29.50;97.10
39983;DHT22;25670;44.782;10.356;2022-07-03T20:38:38;29.20;98.00
39983;DHT22;25670;44.782;10.356;2022-07-03T20:41:06;29.50;97.90
39983;DHT22;25670;44.782;10.356;2022-07-03T20:43:33;29.30;97.80
39983;DHT22;25670;44.782;10.356;2022-07-03T20:53:19;29.50;97.60
39983;DHT22;25670;44.782;10.356;2022-07-03T21:00:39;29.10;99.20
39983;DHT22;25670;44.782;10.356;2022-07-03T21:05:51;28.30;99.80
39983;DHT22;25670;44.782;10.356;2022-07-03T21:10:52;28.70;99.90
39983;DHT22;25670;44.782;10.356;2022-07-03T21:13:36;28.80;98.60
39983;DHT22;25670;44.782;10.356;2022-07-03T21:16:05;28.70;99.60
39983;DHT22;25670;44.782;10.356;2022-07-03T21:18:32;28.50;99.70
39983;DHT22;25670;44.782;10.356;2022-07-03T21:30:26;28.50;98.80
39983;DHT22;25670;44.782;10.356;2022-07-03T21:32:55;28.50;98.90
39983;DHT22;25670;44.782;10.356;2022-07-03T21:35:23;28.40;99.00
39983;DHT22;25670;44.782;10.356;2022-07-03T21:51:31;28.00;99.90
39983;DHT22;25670;44.782;10.356;2022-07-03T22:04:48;27.70;99.90
39983;DHT22;25670;44.782;10.356;2022-07-03T22:07:46;27.60;99.90
39983;DHT22;25670;44.782;10.356;2022-07-03T22:16:26;27.30;99.90
39983;DHT22;25670;44.782;10.356;2022-07-03T22:31:39;27.20;99.90
39983;DHT22;25670;44.782;10.356;2022-07-03T23:09:11;26.20;99.90
39983;DHT22;25670;44.782;10.356;2022-07-03T23:11:38;26.60;99.90
39983;DHT22;25670;44.782;10.356;2022-07-03T23:14:08;26.70;99.90
39983;DHT22;25670;44.782;10.356;2022-07-03T23:21:27;26.20;99.90
39983;DHT22;25670;44.782;10.356;2022-07-03T23:23:57;26.40;99.90
39983;DHT22;25670;44.782;10.356;2022-07-03T23:26:26;25.90;99.90
39983;DHT22;25670;44.782;10.356;2022-07-03T23:52:07;25.80;99.90
39983;DHT22;25670;44.782;10.356;2022-07-03T23:54:49;26.00;99.90
